sensor_id;sensor_type;location;lat;lon;timestamp;temperature;humidity
68691;DHT22;55675;49.588;8.640;2023-01-09T00:02:04;11.60;95.20
68691;DHT22;55675;49.588;8.640;2023-01-09T00:04:30;11.50;95.50
68691;DHT22;55675;49.588;8.640;2023-01-09T00:06:55;11.50;95.60
68691;DHT22;55675;49.588;8.640;2023-01-09T00:09:21;11.40;95.60
68691;DHT22;55675;49.588;8.640;2023-01-09T00:11:47;11.40;95.70
68691;DHT22;55675;49.588;8.640;2023-01-09T00:14:14;11.30;95.90
68691;DHT22;55675;49.588;8.640;2023-01-09T00:16:39;11.20;96.00
68691;DHT22;55675;49.588;8.640;2023-01-09T00:19:05;11.20;96.10
68691;DHT22;55675;49.588;8.640;2023-01-09T00:21:30;11.10;96.40
68691;DHT22;55675;49.588;8.640;2023-01-09T00:23:56;11.10;96.50
68691;DHT22;55675;49.588;8.640;2023-01-09T00:26:21;11.00;96.60
68691;DHT22;55675;49.588;8.640;2023-01-09T00:28:47;11.00;96.70
68691;DHT22;55675;49.588;8.640;2023-01-09T00:31:13;11.00;96.80
68691;DHT22;55675;49.588;8.640;2023-01-09T00:33:40;11.00;96.80
68691;DHT22;55675;49.588;8.640;2023-01-09T00:36:06;11.00;96.90
68691;DHT22;55675;49.588;8.640;2023-01-09T00:38:32;11.00;96.90
68691;DHT22;55675;49.588;8.640;2023-01-09T00:40:57;11.00;97.00
68691;DHT22;55675;49.588;8.640;2023-01-09T00:43:26;11.00;96.90
68691;DHT22;55675;49.588;8.640;2023-01-09T00:45:52;11.00;96.90
68691;DHT22;55675;49.588;8.640;2023-01-09T00:48:18;11.00;96.90
68691;DHT22;55675;49.588;8.640;2023-01-09T00:50:50;11.00;96.90
68691;DHT22;55675;49.588;8.640;2023-01-09T00:53:17;11.00;97.00
68691;DHT22;55675;49.588;8.640;2023-01-09T00:55:43;11.00;96.90
68691;DHT22;55675;49.588;8.640;2023-01-09T00:58:08;11.00;96.90
68691;DHT22;55675;49.588;8.640;2023-01-09T01:00:34;11.00;96.80
68691;DHT22;55675;49.588;8.640;2023-01-09T01:03:00;11.10;96.90
68691;DHT22;55675;49.588;8.640;2023-01-09T01:05:25;11.10;96.80
68691;DHT22;55675;49.588;8.640;2023-01-09T01:08:10;11.10;96.70
68691;DHT22;55675;49.588;8.640;2023-01-09T01:10:35;11.10;96.60
68691;DHT22;55675;49.588;8.640;2023-01-09T01:13:01;11.10;96.50
68691;DHT22;55675;49.588;8.640;2023-01-09T01:15:26;11.10;96.50
68691;DHT22;55675;49.588;8.640;2023-01-09T01:17:53;11.10;96.50
68691;DHT22;55675;49.588;8.640;2023-01-09T01:20:19;11.10;96.50
68691;DHT22;55675;49.588;8.640;2023-01-09T01:22:45;11.10;96.40
68691;DHT22;55675;49.588;8.640;2023-01-09T01:25:11;11.10;96.20
68691;DHT22;55675;49.588;8.640;2023-01-09T01:27:37;11.10;96.30
68691;DHT22;55675;49.588;8.640;2023-01-09T01:30:03;11.10;96.40
68691;DHT22;55675;49.588;8.640;2023-01-09T01:32:28;11.10;96.50
68691;DHT22;55675;49.588;8.640;2023-01-09T01:34:53;11.10;96.50
68691;DHT22;55675;49.588;8.640;2023-01-09T01:37:19;11.10;96.40
68691;DHT22;55675;49.588;8.640;2023-01-09T01:39:47;11.10;96.40
68691;DHT22;55675;49.588;8.640;2023-01-09T01:42:12;11.10;96.30
68691;DHT22;55675;49.588;8.640;2023-01-09T01:44:58;11.10;96.40
68691;DHT22;55675;49.588;8.640;2023-01-09T01:47:27;11.10;96.30
68691;DHT22;55675;49.588;8.640;2023-01-09T01:49:54;11.10;96.40
68691;DHT22;55675;49.588;8.640;2023-01-09T01:52:20;11.10;96.40
68691;DHT22;55675;49.588;8.640;2023-01-09T01:54:46;11.10;96.50
68691;DHT22;55675;49.588;8.640;2023-01-09T01:57:11;11.10;96.40
68691;DHT22;55675;49.588;8.640;2023-01-09T01:59:38;11.00;96.80
68691;DHT22;55675;49.588;8.640;2023-01-09T02:02:05;11.10;96.70
68691;DHT22;55675;49.588;8.640;2023-01-09T02:04:32;11.00;96.60
68691;DHT22;55675;49.588;8.640;2023-01-09T02:06:59;11.00;96.70
68691;DHT22;55675;49.588;8.640;2023-01-09T02:09:26;11.00;96.80
68691;DHT22;55675;49.588;8.640;2023-01-09T02:11:54;11.00;96.70
68691;DHT22;55675;49.588;8.640;2023-01-09T02:14:25;11.00;96.90
68691;DHT22;55675;49.588;8.640;2023-01-09T02:16:53;11.00;97.00
68691;DHT22;55675;49.588;8.640;2023-01-09T02:27:06;11.00;97.10
68691;DHT22;55675;49.588;8.640;2023-01-09T02:32:24;11.00;97.20
68691;DHT22;55675;49.588;8.640;2023-01-09T02:37:37;11.10;97.30
68691;DHT22;55675;49.588;8.640;2023-01-09T02:42:51;11.10;97.10
68691;DHT22;55675;49.588;8.640;2023-01-09T02:45:18;11.20;97.20
68691;DHT22;55675;49.588;8.640;2023-01-09T02:47:44;11.20;97.10
68691;DHT22;55675;49.588;8.640;2023-01-09T02:50:19;11.20;97.20
68691;DHT22;55675;49.588;8.640;2023-01-09T02:52:48;11.20;97.20
68691;DHT22;55675;49.588;8.640;2023-01-09T03:03:08;11.00;97.60
68691;DHT22;55675;49.588;8.640;2023-01-09T03:05:49;10.90;98.00
68691;DHT22;55675;49.588;8.640;2023-01-09T03:08:17;10.80;98.10
68691;DHT22;55675;49.588;8.640;2023-01-09T03:10:51;10.80;98.00
68691;DHT22;55675;49.588;8.640;2023-01-09T03:13:18;10.70;98.10
68691;DHT22;55675;49.588;8.640;2023-01-09T03:15:46;10.80;98.30
68691;DHT22;55675;49.588;8.640;2023-01-09T03:18:15;10.80;98.30
68691;DHT22;55675;49.588;8.640;2023-01-09T03:20:41;10.90;98.30
68691;DHT22;55675;49.588;8.640;2023-01-09T03:23:07;10.90;98.30
68691;DHT22;55675;49.588;8.640;2023-01-09T03:25:33;11.00;98.30
68691;DHT22;55675;49.588;8.640;2023-01-09T03:28:12;11.00;98.20
68691;DHT22;55675;49.588;8.640;2023-01-09T03:30:42;11.00;98.20
68691;DHT22;55675;49.588;8.640;2023-01-09T03:33:07;11.00;98.20
68691;DHT22;55675;49.588;8.640;2023-01-09T03:35:33;11.00;98.20
68691;DHT22;55675;49.588;8.640;2023-01-09T03:37:58;11.00;98.10
68691;DHT22;55675;49.588;8.640;2023-01-09T03:40:23;11.00;98.00
68691;DHT22;55675;49.588;8.640;2023-01-09T03:42:49;11.00;98.00
68691;DHT22;55675;49.588;8.640;2023-01-09T03:45:14;11.00;98.00
68691;DHT22;55675;49.588;8.640;2023-01-09T03:47:40;11.00;97.90
68691;DHT22;55675;49.588;8.640;2023-01-09T03:50:05;11.00;97.90
68691;DHT22;55675;49.588;8.640;2023-01-09T03:52:31;11.00;97.80
68691;DHT22;55675;49.588;8.640;2023-01-09T03:54:56;11.00;97.50
68691;DHT22;55675;49.588;8.640;2023-01-09T03:57:22;10.90;97.20
68691;DHT22;55675;49.588;8.640;2023-01-09T03:59:48;10.90;97.00
68691;DHT22;55675;49.588;8.640;2023-01-09T04:02:14;10.90;96.90
68691;DHT22;55675;49.588;8.640;2023-01-09T04:04:39;10.90;95.70
68691;DHT22;55675;49.588;8.640;2023-01-09T04:07:04;10.90;95.40
68691;DHT22;55675;49.588;8.640;2023-01-09T04:09:30;10.90;94.80
68691;DHT22;55675;49.588;8.640;2023-01-09T04:11:55;10.90;94.50
68691;DHT22;55675;49.588;8.640;2023-01-09T04:14:21;10.90;94.40
68691;DHT22;55675;49.588;8.640;2023-01-09T04:16:46;10.70;94.60
68691;DHT22;55675;49.588;8.640;2023-01-09T04:19:11;10.80;94.90
68691;DHT22;55675;49.588;8.640;2023-01-09T04:21:37;10.80;95.00
68691;DHT22;55675;49.588;8.640;2023-01-09T04:24:02;10.80;94.50
68691;DHT22;55675;49.588;8.640;2023-01-09T04:26:28;10.80;94.50
68691;DHT22;55675;49.588;8.640;2023-01-09T04:28:53;10.80;93.20
68691;DHT22;55675;49.588;8.640;2023-01-09T04:31:19;10.80;93.50
68691;DHT22;55675;49.588;8.640;2023-01-09T04:33:44;10.70;93.80
68691;DHT22;55675;49.588;8.640;2023-01-09T04:36:10;10.70;94.10
68691;DHT22;55675;49.588;8.640;2023-01-09T04:38:35;10.70;94.30
68691;DHT22;55675;49.588;8.640;2023-01-09T04:41:00;10.60;92.40
68691;DHT22;55675;49.588;8.640;2023-01-09T04:43:26;10.60;92.50
68691;DHT22;55675;49.588;8.640;2023-01-09T04:45:51;10.60;92.70
68691;DHT22;55675;49.588;8.640;2023-01-09T04:48:17;10.60;92.70
68691;DHT22;55675;49.588;8.640;2023-01-09T04:50:42;10.50;92.20
68691;DHT22;55675;49.588;8.640;2023-01-09T04:53:08;10.50;92.40
68691;DHT22;55675;49.588;8.640;2023-01-09T04:55:33;10.60;92.60
68691;DHT22;55675;49.588;8.640;2023-01-09T04:57:58;10.50;92.70
68691;DHT22;55675;49.588;8.640;2023-01-09T05:00:24;10.50;92.60
68691;DHT22;55675;49.588;8.640;2023-01-09T05:02:49;10.50;92.80
68691;DHT22;55675;49.588;8.640;2023-01-09T05:05:15;10.50;92.90
68691;DHT22;55675;49.588;8.640;2023-01-09T05:07:40;10.60;92.40
68691;DHT22;55675;49.588;8.640;2023-01-09T05:10:06;10.60;92.30
68691;DHT22;55675;49.588;8.640;2023-01-09T05:12:32;10.60;92.20
68691;DHT22;55675;49.588;8.640;2023-01-09T05:15:00;10.50;91.80
68691;DHT22;55675;49.588;8.640;2023-01-09T05:17:26;10.50;91.10
68691;DHT22;55675;49.588;8.640;2023-01-09T05:19:51;10.40;90.60
68691;DHT22;55675;49.588;8.640;2023-01-09T05:22:17;10.40;90.40
68691;DHT22;55675;49.588;8.640;2023-01-09T05:24:42;10.40;90.30
68691;DHT22;55675;49.588;8.640;2023-01-09T05:27:08;10.30;90.80
68691;DHT22;55675;49.588;8.640;2023-01-09T05:29:33;10.40;91.10
68691;DHT22;55675;49.588;8.640;2023-01-09T05:31:59;10.40;91.40
68691;DHT22;55675;49.588;8.640;2023-01-09T05:34:24;10.50;91.80
68691;DHT22;55675;49.588;8.640;2023-01-09T05:36:49;10.50;92.40
68691;DHT22;55675;49.588;8.640;2023-01-09T05:39:15;10.50;92.20
68691;DHT22;55675;49.588;8.640;2023-01-09T05:41:40;10.40;91.50
68691;DHT22;55675;49.588;8.640;2023-01-09T05:44:06;10.40;87.00
68691;DHT22;55675;49.588;8.640;2023-01-09T05:46:31;10.30;87.60
68691;DHT22;55675;49.588;8.640;2023-01-09T05:48:57;10.30;88.70
68691;DHT22;55675;49.588;8.640;2023-01-09T05:51:22;10.20;89.50
68691;DHT22;55675;49.588;8.640;2023-01-09T05:53:48;10.20;89.50
68691;DHT22;55675;49.588;8.640;2023-01-09T05:56:13;10.10;89.70
68691;DHT22;55675;49.588;8.640;2023-01-09T05:58:39;9.90;90.20
68691;DHT22;55675;49.588;8.640;2023-01-09T06:01:04;9.90;90.90
68691;DHT22;55675;49.588;8.640;2023-01-09T06:03:30;9.80;91.20
68691;DHT22;55675;49.588;8.640;2023-01-09T06:05:55;9.70;91.60
68691;DHT22;55675;49.588;8.640;2023-01-09T06:08:20;9.70;91.90
68691;DHT22;55675;49.588;8.640;2023-01-09T06:10:46;9.80;92.40
68691;DHT22;55675;49.588;8.640;2023-01-09T06:13:12;9.80;92.50
68691;DHT22;55675;49.588;8.640;2023-01-09T06:15:37;9.80;92.60
68691;DHT22;55675;49.588;8.640;2023-01-09T06:18:03;9.90;92.90
68691;DHT22;55675;49.588;8.640;2023-01-09T06:20:29;9.90;92.90
68691;DHT22;55675;49.588;8.640;2023-01-09T06:22:54;9.90;93.00
68691;DHT22;55675;49.588;8.640;2023-01-09T06:25:20;10.00;93.00
68691;DHT22;55675;49.588;8.640;2023-01-09T06:27:45;10.00;92.90
68691;DHT22;55675;49.588;8.640;2023-01-09T06:30:11;10.00;92.70
68691;DHT22;55675;49.588;8.640;2023-01-09T06:32:36;10.00;92.40
68691;DHT22;55675;49.588;8.640;2023-01-09T06:35:02;10.00;91.90
68691;DHT22;55675;49.588;8.640;2023-01-09T06:37:27;10.00;92.10
68691;DHT22;55675;49.588;8.640;2023-01-09T06:39:53;10.00;92.20
68691;DHT22;55675;49.588;8.640;2023-01-09T06:42:19;10.00;92.40
68691;DHT22;55675;49.588;8.640;2023-01-09T06:44:44;10.00;92.60
68691;DHT22;55675;49.588;8.640;2023-01-09T06:47:09;9.90;92.60
68691;DHT22;55675;49.588;8.640;2023-01-09T06:49:35;9.90;92.60
68691;DHT22;55675;49.588;8.640;2023-01-09T06:52:00;9.90;92.70
68691;DHT22;55675;49.588;8.640;2023-01-09T06:54:29;9.80;92.60
68691;DHT22;55675;49.588;8.640;2023-01-09T06:56:55;9.80;92.80
68691;DHT22;55675;49.588;8.640;2023-01-09T06:59:20;9.80;93.10
68691;DHT22;55675;49.588;8.640;2023-01-09T07:01:46;9.70;93.40
68691;DHT22;55675;49.588;8.640;2023-01-09T07:04:11;9.70;93.60
68691;DHT22;55675;49.588;8.640;2023-01-09T07:06:37;9.60;93.70
68691;DHT22;55675;49.588;8.640;2023-01-09T07:09:03;9.60;93.80
68691;DHT22;55675;49.588;8.640;2023-01-09T07:11:30;9.60;93.90
68691;DHT22;55675;49.588;8.640;2023-01-09T07:13:55;9.60;93.90
68691;DHT22;55675;49.588;8.640;2023-01-09T07:16:21;9.60;93.80
68691;DHT22;55675;49.588;8.640;2023-01-09T07:18:46;9.60;93.70
68691;DHT22;55675;49.588;8.640;2023-01-09T07:21:12;9.50;93.60
68691;DHT22;55675;49.588;8.640;2023-01-09T07:23:37;9.50;93.50
68691;DHT22;55675;49.588;8.640;2023-01-09T07:26:03;9.60;93.40
68691;DHT22;55675;49.588;8.640;2023-01-09T07:28:28;9.60;93.40
68691;DHT22;55675;49.588;8.640;2023-01-09T07:30:54;9.50;93.40
68691;DHT22;55675;49.588;8.640;2023-01-09T07:33:19;9.50;93.40
68691;DHT22;55675;49.588;8.640;2023-01-09T07:35:44;9.50;93.30
68691;DHT22;55675;49.588;8.640;2023-01-09T07:38:10;9.60;93.10
68691;DHT22;55675;49.588;8.640;2023-01-09T07:40:36;9.50;93.20
68691;DHT22;55675;49.588;8.640;2023-01-09T07:43:01;9.60;93.30
68691;DHT22;55675;49.588;8.640;2023-01-09T07:45:27;9.60;93.10
68691;DHT22;55675;49.588;8.640;2023-01-09T07:47:52;9.60;93.00
68691;DHT22;55675;49.588;8.640;2023-01-09T07:50:18;9.60;93.20
68691;DHT22;55675;49.588;8.640;2023-01-09T07:52:44;9.60;93.20
68691;DHT22;55675;49.588;8.640;2023-01-09T07:55:10;9.60;93.00
68691;DHT22;55675;49.588;8.640;2023-01-09T07:57:35;9.60;93.10
68691;DHT22;55675;49.588;8.640;2023-01-09T08:00:01;9.70;93.20
68691;DHT22;55675;49.588;8.640;2023-01-09T08:02:28;9.70;93.00
68691;DHT22;55675;49.588;8.640;2023-01-09T08:04:53;9.80;92.90
68691;DHT22;55675;49.588;8.640;2023-01-09T08:07:18;9.80;92.80
68691;DHT22;55675;49.588;8.640;2023-01-09T08:09:44;9.80;92.60
68691;DHT22;55675;49.588;8.640;2023-01-09T08:12:09;9.80;92.60
68691;DHT22;55675;49.588;8.640;2023-01-09T08:14:35;9.80;92.50
68691;DHT22;55675;49.588;8.640;2023-01-09T08:17:00;9.80;92.60
68691;DHT22;55675;49.588;8.640;2023-01-09T08:19:26;9.90;92.70
68691;DHT22;55675;49.588;8.640;2023-01-09T08:21:52;9.90;92.70
68691;DHT22;55675;49.588;8.640;2023-01-09T08:24:18;9.90;92.50
68691;DHT22;55675;49.588;8.640;2023-01-09T08:26:43;10.00;92.50
68691;DHT22;55675;49.588;8.640;2023-01-09T08:29:09;10.00;92.00
68691;DHT22;55675;49.588;8.640;2023-01-09T08:31:34;10.10;92.10
68691;DHT22;55675;49.588;8.640;2023-01-09T08:34:00;10.20;92.20
68691;DHT22;55675;49.588;8.640;2023-01-09T08:36:25;10.30;91.80
68691;DHT22;55675;49.588;8.640;2023-01-09T08:38:51;10.30;91.90
68691;DHT22;55675;49.588;8.640;2023-01-09T08:41:16;10.40;91.60
68691;DHT22;55675;49.588;8.640;2023-01-09T08:44:00;10.50;91.60
68691;DHT22;55675;49.588;8.640;2023-01-09T08:46:45;10.60;90.90
68691;DHT22;55675;49.588;8.640;2023-01-09T08:49:29;10.70;91.00
68691;DHT22;55675;49.588;8.640;2023-01-09T08:51:54;10.70;90.80
68691;DHT22;55675;49.588;8.640;2023-01-09T08:54:20;10.70;90.80
68691;DHT22;55675;49.588;8.640;2023-01-09T08:56:45;10.70;90.50
68691;DHT22;55675;49.588;8.640;2023-01-09T08:59:11;10.70;90.50
68691;DHT22;55675;49.588;8.640;2023-01-09T09:01:36;10.60;90.40
68691;DHT22;55675;49.588;8.640;2023-01-09T09:04:01;10.60;90.40
68691;DHT22;55675;49.588;8.640;2023-01-09T09:06:29;10.60;90.30
68691;DHT22;55675;49.588;8.640;2023-01-09T09:08:55;10.60;90.70
68691;DHT22;55675;49.588;8.640;2023-01-09T09:11:20;10.70;90.50
68691;DHT22;55675;49.588;8.640;2023-01-09T09:13:46;10.80;90.10
68691;DHT22;55675;49.588;8.640;2023-01-09T09:16:11;10.80;89.70
68691;DHT22;55675;49.588;8.640;2023-01-09T09:18:36;10.70;89.10
68691;DHT22;55675;49.588;8.640;2023-01-09T09:21:02;10.70;89.80
68691;DHT22;55675;49.588;8.640;2023-01-09T09:23:27;10.70;90.00
68691;DHT22;55675;49.588;8.640;2023-01-09T09:25:53;10.60;90.00
68691;DHT22;55675;49.588;8.640;2023-01-09T09:28:18;10.60;89.50
68691;DHT22;55675;49.588;8.640;2023-01-09T09:30:43;10.60;90.00
68691;DHT22;55675;49.588;8.640;2023-01-09T09:33:09;10.70;89.20
68691;DHT22;55675;49.588;8.640;2023-01-09T09:35:35;10.60;89.10
68691;DHT22;55675;49.588;8.640;2023-01-09T09:38:02;10.70;89.80
68691;DHT22;55675;49.588;8.640;2023-01-09T09:43:07;10.70;89.30
68691;DHT22;55675;49.588;8.640;2023-01-09T09:46:01;10.80;89.10
68691;DHT22;55675;49.588;8.640;2023-01-09T09:53:50;10.90;88.80
68691;DHT22;55675;49.588;8.640;2023-01-09T09:56:17;11.10;89.10
68691;DHT22;55675;49.588;8.640;2023-01-09T09:58:47;11.20;88.40
68691;DHT22;55675;49.588;8.640;2023-01-09T10:01:14;11.20;88.10
68691;DHT22;55675;49.588;8.640;2023-01-09T10:03:45;11.30;86.90
68691;DHT22;55675;49.588;8.640;2023-01-09T10:06:29;11.30;86.70
68691;DHT22;55675;49.588;8.640;2023-01-09T10:09:04;11.30;86.30
68691;DHT22;55675;49.588;8.640;2023-01-09T10:11:38;11.20;86.50
68691;DHT22;55675;49.588;8.640;2023-01-09T10:14:06;11.20;86.70
68691;DHT22;55675;49.588;8.640;2023-01-09T10:19:04;11.20;86.80
68691;DHT22;55675;49.588;8.640;2023-01-09T10:21:46;11.20;86.20
68691;DHT22;55675;49.588;8.640;2023-01-09T10:26:49;11.00;85.60
68691;DHT22;55675;49.588;8.640;2023-01-09T10:31:47;11.00;86.50
68691;DHT22;55675;49.588;8.640;2023-01-09T10:42:25;11.00;86.70
68691;DHT22;55675;49.588;8.640;2023-01-09T10:45:14;11.00;87.20
68691;DHT22;55675;49.588;8.640;2023-01-09T10:47:41;11.00;87.30
68691;DHT22;55675;49.588;8.640;2023-01-09T10:50:31;10.90;87.40
68691;DHT22;55675;49.588;8.640;2023-01-09T10:52:54;10.90;87.50
68691;DHT22;55675;49.588;8.640;2023-01-09T10:55:37;10.90;87.30
68691;DHT22;55675;49.588;8.640;2023-01-09T10:58:10;10.90;88.10
68691;DHT22;55675;49.588;8.640;2023-01-09T11:00:36;10.80;88.40
68691;DHT22;55675;49.588;8.640;2023-01-09T11:03:02;10.70;88.30
68691;DHT22;55675;49.588;8.640;2023-01-09T11:05:28;10.70;89.40
68691;DHT22;55675;49.588;8.640;2023-01-09T11:07:56;10.70;90.10
68691;DHT22;55675;49.588;8.640;2023-01-09T11:10:22;10.70;90.20
68691;DHT22;55675;49.588;8.640;2023-01-09T11:12:48;10.80;90.60
68691;DHT22;55675;49.588;8.640;2023-01-09T11:17:45;10.90;90.50
68691;DHT22;55675;49.588;8.640;2023-01-09T11:20:14;10.90;90.90
68691;DHT22;55675;49.588;8.640;2023-01-09T11:22:42;10.90;90.90
68691;DHT22;55675;49.588;8.640;2023-01-09T11:25:10;10.90;90.70
68691;DHT22;55675;49.588;8.640;2023-01-09T11:27:35;10.90;90.70
68691;DHT22;55675;49.588;8.640;2023-01-09T11:30:21;10.90;90.40
68691;DHT22;55675;49.588;8.640;2023-01-09T11:32:50;10.80;90.40
68691;DHT22;55675;49.588;8.640;2023-01-09T11:35:17;10.90;90.50
68691;DHT22;55675;49.588;8.640;2023-01-09T11:37:43;10.90;90.70
68691;DHT22;55675;49.588;8.640;2023-01-09T11:40:19;11.00;90.60
68691;DHT22;55675;49.588;8.640;2023-01-09T11:45:30;11.00;90.30
68691;DHT22;55675;49.588;8.640;2023-01-09T11:47:57;11.00;90.40
68691;DHT22;55675;49.588;8.640;2023-01-09T11:50:26;11.00;90.20
68691;DHT22;55675;49.588;8.640;2023-01-09T11:55:36;11.00;90.30
68691;DHT22;55675;49.588;8.640;2023-01-09T11:58:02;11.00;90.50
68691;DHT22;55675;49.588;8.640;2023-01-09T12:00:28;11.00;90.50
68691;DHT22;55675;49.588;8.640;2023-01-09T12:03:07;11.00;90.60
68691;DHT22;55675;49.588;8.640;2023-01-09T12:08:14;11.00;90.60
68691;DHT22;55675;49.588;8.640;2023-01-09T12:11:00;11.00;90.70
68691;DHT22;55675;49.588;8.640;2023-01-09T12:23:59;11.00;90.50
68691;DHT22;55675;49.588;8.640;2023-01-09T12:26:31;10.90;90.50
68691;DHT22;55675;49.588;8.640;2023-01-09T12:29:04;10.90;90.40
68691;DHT22;55675;49.588;8.640;2023-01-09T12:42:16;10.80;91.60
68691;DHT22;55675;49.588;8.640;2023-01-09T12:44:49;10.70;91.40
68691;DHT22;55675;49.588;8.640;2023-01-09T12:49:56;10.70;91.30
68691;DHT22;55675;49.588;8.640;2023-01-09T12:52:27;10.70;91.40
68691;DHT22;55675;49.588;8.640;2023-01-09T12:54:57;10.80;91.60
68691;DHT22;55675;49.588;8.640;2023-01-09T12:57:29;10.80;91.90
68691;DHT22;55675;49.588;8.640;2023-01-09T13:00:02;10.90;92.00
68691;DHT22;55675;49.588;8.640;2023-01-09T13:02:32;10.90;91.90
68691;DHT22;55675;49.588;8.640;2023-01-09T13:05:00;10.90;91.70
68691;DHT22;55675;49.588;8.640;2023-01-09T13:07:29;10.90;91.90
68691;DHT22;55675;49.588;8.640;2023-01-09T13:10:08;10.90;91.80
68691;DHT22;55675;49.588;8.640;2023-01-09T13:12:38;10.80;92.10
68691;DHT22;55675;49.588;8.640;2023-01-09T13:15:13;10.80;92.10
68691;DHT22;55675;49.588;8.640;2023-01-09T13:17:51;10.80;92.10
68691;DHT22;55675;49.588;8.640;2023-01-09T13:20:19;10.70;92.20
68691;DHT22;55675;49.588;8.640;2023-01-09T13:22:45;10.80;92.40
68691;DHT22;55675;49.588;8.640;2023-01-09T13:25:18;10.80;92.50
68691;DHT22;55675;49.588;8.640;2023-01-09T13:27:45;10.80;92.30
68691;DHT22;55675;49.588;8.640;2023-01-09T13:35:13;10.80;92.70
68691;DHT22;55675;49.588;8.640;2023-01-09T13:37:38;10.80;92.60
68691;DHT22;55675;49.588;8.640;2023-01-09T13:40:05;10.80;92.40
68691;DHT22;55675;49.588;8.640;2023-01-09T13:42:31;10.80;92.40
68691;DHT22;55675;49.588;8.640;2023-01-09T13:45:10;10.80;92.50
68691;DHT22;55675;49.588;8.640;2023-01-09T13:47:40;10.80;92.50
68691;DHT22;55675;49.588;8.640;2023-01-09T13:52:37;10.80;92.50
68691;DHT22;55675;49.588;8.640;2023-01-09T13:57:43;11.00;92.40
68691;DHT22;55675;49.588;8.640;2023-01-09T14:05:08;11.20;91.90
68691;DHT22;55675;49.588;8.640;2023-01-09T14:07:38;11.30;91.80
68691;DHT22;55675;49.588;8.640;2023-01-09T14:10:15;11.40;91.80
68691;DHT22;55675;49.588;8.640;2023-01-09T14:12:45;11.40;91.70
68691;DHT22;55675;49.588;8.640;2023-01-09T14:15:23;11.40;91.60
68691;DHT22;55675;49.588;8.640;2023-01-09T14:18:03;11.40;91.40
68691;DHT22;55675;49.588;8.640;2023-01-09T14:20:30;11.40;91.20
68691;DHT22;55675;49.588;8.640;2023-01-09T14:22:58;11.40;91.00
68691;DHT22;55675;49.588;8.640;2023-01-09T14:25:25;11.30;91.00
68691;DHT22;55675;49.588;8.640;2023-01-09T14:32:54;11.10;90.80
68691;DHT22;55675;49.588;8.640;2023-01-09T14:35:28;11.00;90.50
68691;DHT22;55675;49.588;8.640;2023-01-09T14:38:03;10.90;90.70
68691;DHT22;55675;49.588;8.640;2023-01-09T14:40:30;10.80;90.80
68691;DHT22;55675;49.588;8.640;2023-01-09T14:42:57;10.70;90.90
68691;DHT22;55675;49.588;8.640;2023-01-09T14:45:24;10.70;91.20
68691;DHT22;55675;49.588;8.640;2023-01-09T14:50:31;10.60;91.50
68691;DHT22;55675;49.588;8.640;2023-01-09T14:55:47;10.50;90.10
68691;DHT22;55675;49.588;8.640;2023-01-09T14:58:19;10.50;89.60
68691;DHT22;55675;49.588;8.640;2023-01-09T15:00:55;10.40;90.30
68691;DHT22;55675;49.588;8.640;2023-01-09T15:03:21;10.40;90.60
68691;DHT22;55675;49.588;8.640;2023-01-09T15:05:48;10.40;90.80
68691;DHT22;55675;49.588;8.640;2023-01-09T15:08:16;10.40;90.90
68691;DHT22;55675;49.588;8.640;2023-01-09T15:10:44;10.50;91.20
68691;DHT22;55675;49.588;8.640;2023-01-09T15:13:17;10.60;91.20
68691;DHT22;55675;49.588;8.640;2023-01-09T15:15:45;10.60;90.90
68691;DHT22;55675;49.588;8.640;2023-01-09T15:18:17;10.60;91.00
68691;DHT22;55675;49.588;8.640;2023-01-09T15:20:43;10.50;91.00
68691;DHT22;55675;49.588;8.640;2023-01-09T15:23:20;10.50;90.80
68691;DHT22;55675;49.588;8.640;2023-01-09T15:25:46;10.40;90.50
68691;DHT22;55675;49.588;8.640;2023-01-09T15:28:45;10.40;90.60
68691;DHT22;55675;49.588;8.640;2023-01-09T15:31:13;10.30;90.50
68691;DHT22;55675;49.588;8.640;2023-01-09T15:33:41;10.30;90.30
68691;DHT22;55675;49.588;8.640;2023-01-09T15:36:09;10.20;90.20
68691;DHT22;55675;49.588;8.640;2023-01-09T15:38:35;10.20;90.10
68691;DHT22;55675;49.588;8.640;2023-01-09T15:41:03;10.10;90.10
68691;DHT22;55675;49.588;8.640;2023-01-09T15:43:30;10.10;89.90
68691;DHT22;55675;49.588;8.640;2023-01-09T15:45:57;9.90;89.70
68691;DHT22;55675;49.588;8.640;2023-01-09T15:48:24;9.80;90.10
68691;DHT22;55675;49.588;8.640;2023-01-09T15:50:51;9.70;90.10
68691;DHT22;55675;49.588;8.640;2023-01-09T15:53:21;9.70;90.20
68691;DHT22;55675;49.588;8.640;2023-01-09T15:56:00;9.80;90.20
68691;DHT22;55675;49.588;8.640;2023-01-09T15:58:35;9.80;90.20
68691;DHT22;55675;49.588;8.640;2023-01-09T16:01:02;9.80;90.20
68691;DHT22;55675;49.588;8.640;2023-01-09T16:03:29;9.80;90.30
68691;DHT22;55675;49.588;8.640;2023-01-09T16:05:55;9.70;90.20
68691;DHT22;55675;49.588;8.640;2023-01-09T16:08:39;9.70;90.20
68691;DHT22;55675;49.588;8.640;2023-01-09T16:11:07;9.70;90.20
68691;DHT22;55675;49.588;8.640;2023-01-09T16:13:42;9.70;90.20
68691;DHT22;55675;49.588;8.640;2023-01-09T16:16:08;9.60;90.20
68691;DHT22;55675;49.588;8.640;2023-01-09T16:18:35;9.70;90.10
68691;DHT22;55675;49.588;8.640;2023-01-09T16:21:02;9.60;90.00
68691;DHT22;55675;49.588;8.640;2023-01-09T16:23:30;9.60;90.10
68691;DHT22;55675;49.588;8.640;2023-01-09T16:26:08;9.70;90.20
68691;DHT22;55675;49.588;8.640;2023-01-09T16:28:35;9.60;90.10
68691;DHT22;55675;49.588;8.640;2023-01-09T16:31:06;9.60;90.00
68691;DHT22;55675;49.588;8.640;2023-01-09T16:33:41;9.60;89.10
68691;DHT22;55675;49.588;8.640;2023-01-09T16:36:08;9.60;89.60
68691;DHT22;55675;49.588;8.640;2023-01-09T16:38:34;9.60;90.00
68691;DHT22;55675;49.588;8.640;2023-01-09T16:43:44;9.60;90.50
68691;DHT22;55675;49.588;8.640;2023-01-09T16:46:09;9.60;90.50
68691;DHT22;55675;49.588;8.640;2023-01-09T16:48:35;9.70;91.00
68691;DHT22;55675;49.588;8.640;2023-01-09T16:51:02;9.70;90.80
68691;DHT22;55675;49.588;8.640;2023-01-09T16:53:28;9.70;91.10
68691;DHT22;55675;49.588;8.640;2023-01-09T16:55:56;9.70;90.90
68691;DHT22;55675;49.588;8.640;2023-01-09T16:58:23;9.70;90.90
68691;DHT22;55675;49.588;8.640;2023-01-09T17:00:49;9.70;91.00
68691;DHT22;55675;49.588;8.640;2023-01-09T17:03:15;9.70;91.10
68691;DHT22;55675;49.588;8.640;2023-01-09T17:05:41;9.70;90.80
68691;DHT22;55675;49.588;8.640;2023-01-09T17:10:41;9.70;90.70
68691;DHT22;55675;49.588;8.640;2023-01-09T17:13:06;9.70;91.10
68691;DHT22;55675;49.588;8.640;2023-01-09T17:15:32;9.80;91.10
68691;DHT22;55675;49.588;8.640;2023-01-09T17:17:57;9.70;91.00
68691;DHT22;55675;49.588;8.640;2023-01-09T17:20:25;9.70;91.10
68691;DHT22;55675;49.588;8.640;2023-01-09T17:22:53;9.70;90.90
68691;DHT22;55675;49.588;8.640;2023-01-09T17:25:18;9.70;90.80
68691;DHT22;55675;49.588;8.640;2023-01-09T17:28:03;9.60;91.00
68691;DHT22;55675;49.588;8.640;2023-01-09T17:30:47;9.60;91.00
68691;DHT22;55675;49.588;8.640;2023-01-09T17:33:16;9.60;90.90